createdAt,value
2018-11-26T00:00:55.512Z,119.30
2018-11-26T00:01:55.483Z,125.30
2018-11-26T00:02:55.501Z,126.00
2018-11-26T00:03:55.507Z,123.10
2018-11-26T00:04:55.522Z,124.60
2018-11-26T00:05:55.538Z,118.20
2018-11-26T00:06:55.546Z,127.00
2018-11-26T00:07:55.566Z,115.60
2018-11-26T00:08:55.570Z,122.70
2018-11-26T00:09:55.584Z,122.10
2018-11-26T00:10:55.594Z,115.00
2018-11-26T00:11:55.605Z,125.90
2018-11-26T00:12:55.619Z,123.10
2018-11-26T00:13:55.630Z,120.10
2018-11-26T00:14:55.642Z,118.50
2018-11-26T00:15:55.654Z,122.80
2018-11-26T00:16:55.665Z,116.50
2018-11-26T00:17:55.677Z,116.10
2018-11-26T00:18:55.689Z,119.00
2018-11-26T00:19:55.702Z,114.70
2018-11-26T00:20:55.714Z,109.80
2018-11-26T00:21:55.722Z,122.10
2018-11-26T00:22:55.736Z,116.20
2018-11-26T00:23:55.751Z,110.70
2018-11-26T00:24:55.761Z,111.10
2018-11-26T00:25:55.775Z,115.30
2018-11-26T00:26:55.782Z,118.40
2018-11-26T00:27:55.804Z,117.00
2018-11-26T00:28:55.818Z,118.20
2018-11-26T00:29:55.821Z,114.90
2018-11-26T00:30:55.830Z,111.60
2018-11-26T00:31:55.845Z,112.90
2018-11-26T00:32:55.852Z,111.80
2018-11-26T00:33:55.869Z,114.60
2018-11-26T00:34:55.877Z,112.30
2018-11-26T00:35:55.893Z,108.40
2018-11-26T00:36:55.905Z,103.50
2018-11-26T00:37:55.915Z,110.20
2018-11-26T00:38:55.933Z,108.70
2018-11-26T00:39:55.944Z,100.70
2018-11-26T00:40:55.973Z,103.70
2018-11-26T00:41:55.965Z,104.60
2018-11-26T00:42:55.975Z,98.60
2018-11-26T00:43:55.988Z,99.80
2018-11-26T00:44:56.002Z,100.20
2018-11-26T00:45:56.013Z,96.80
2018-11-26T00:46:56.030Z,103.90
2018-11-26T00:47:56.036Z,99.10
2018-11-26T00:48:56.052Z,95.40
2018-11-26T00:49:56.061Z,100.80
2018-11-26T00:50:56.071Z,97.40
2018-11-26T00:51:56.084Z,97.60
2018-11-26T00:52:56.102Z,95.30
2018-11-26T00:53:56.118Z,99.50
2018-11-26T00:54:56.125Z,93.10
2018-11-26T00:55:56.131Z,93.00
2018-11-26T00:56:56.156Z,96.20
2018-11-26T00:57:56.155Z,95.70
2018-11-26T00:58:56.171Z,96.70
2018-11-26T00:59:56.181Z,91.90
2018-11-26T01:00:56.190Z,93.10
2018-11-26T01:01:56.207Z,89.00
2018-11-26T01:02:56.214Z,88.50
2018-11-26T01:03:56.228Z,94.40
2018-11-26T01:04:56.244Z,87.50
2018-11-26T01:05:56.253Z,91.60
2018-11-26T01:06:56.261Z,90.80
2018-11-26T01:07:56.276Z,89.80
2018-11-26T01:08:56.298Z,85.40
2018-11-26T01:09:56.308Z,80.40
2018-11-26T01:10:56.312Z,81.80
2018-11-26T01:11:56.326Z,79.00
2018-11-26T01:12:56.336Z,84.20
2018-11-26T01:13:56.352Z,80.30
2018-11-26T01:14:56.363Z,83.70
2018-11-26T01:15:56.375Z,80.30
2018-11-26T01:16:56.389Z,80.10
2018-11-26T01:17:56.399Z,79.10
2018-11-26T01:18:56.412Z,78.90
2018-11-26T01:19:56.424Z,81.40
2018-11-26T01:20:56.436Z,89.00
2018-11-26T01:21:56.452Z,81.50
2018-11-26T01:22:56.460Z,77.10
2018-11-26T01:23:56.468Z,76.10
2018-11-26T01:24:56.488Z,79.90
2018-11-26T01:25:56.498Z,79.10
2018-11-26T01:26:56.508Z,76.00
2018-11-26T01:27:56.522Z,76.00
2018-11-26T01:28:56.532Z,76.40
2018-11-26T01:29:56.547Z,77.80
2018-11-26T01:30:56.559Z,81.60
2018-11-26T01:31:56.570Z,75.70
2018-11-26T01:32:56.583Z,73.80
2018-11-26T01:33:56.594Z,78.90
2018-11-26T01:34:56.603Z,75.80
2018-11-26T01:35:56.619Z,76.50
2018-11-26T01:36:56.637Z,73.00
2018-11-26T01:37:56.644Z,73.40
2018-11-26T01:38:56.654Z,74.60
2018-11-26T01:39:56.664Z,70.40
2018-11-26T01:40:56.679Z,77.60
2018-11-26T01:41:56.696Z,75.50
2018-11-26T01:42:56.704Z,74.50
2018-11-26T01:43:56.718Z,78.20
2018-11-26T01:44:56.727Z,74.30
2018-11-26T01:45:56.741Z,75.20
2018-11-26T01:46:56.753Z,73.50
2018-11-26T01:47:56.766Z,73.70
2018-11-26T01:48:56.777Z,69.20
2018-11-26T01:49:56.792Z,68.60
2018-11-26T01:50:56.800Z,75.20
2018-11-26T01:51:56.813Z,72.90
2018-11-26T01:52:56.825Z,72.00
2018-11-26T01:53:56.841Z,71.60
2018-11-26T01:54:56.850Z,73.10
2018-11-26T01:55:56.867Z,70.70
2018-11-26T01:56:56.878Z,71.90
2018-11-26T01:57:56.886Z,70.40
2018-11-26T01:58:56.907Z,75.80
2018-11-26T01:59:56.911Z,70.30
2018-11-26T02:00:56.924Z,69.80
2018-11-26T02:01:56.940Z,72.60
2018-11-26T02:02:56.949Z,70.00
2018-11-26T02:03:56.968Z,72.00
2018-11-26T02:04:56.973Z,69.90
2018-11-26T02:05:56.985Z,68.60
2018-11-26T02:06:56.995Z,73.40
2018-11-26T02:07:57.009Z,72.20
2018-11-26T02:08:57.021Z,71.50
2018-11-26T02:09:57.037Z,68.50
2018-11-26T02:10:57.045Z,71.30
2018-11-26T02:11:57.059Z,68.30
2018-11-26T02:12:57.073Z,67.60
2018-11-26T02:13:57.084Z,72.70
2018-11-26T02:14:57.094Z,69.50
2018-11-26T02:15:57.108Z,65.60
2018-11-26T02:16:57.119Z,66.70
2018-11-26T02:17:57.132Z,68.00
2018-11-26T02:18:57.146Z,71.90
2018-11-26T02:19:57.156Z,68.70
2018-11-26T02:20:57.171Z,69.50
2018-11-26T02:21:57.192Z,65.60
2018-11-26T02:22:57.196Z,69.20
2018-11-26T02:23:57.203Z,70.30
2018-11-26T02:24:57.217Z,65.00
2018-11-26T02:25:57.232Z,67.50
2018-11-26T02:26:57.242Z,69.00
2018-11-26T02:27:57.268Z,67.20
2018-11-26T02:28:57.279Z,68.80
2018-11-26T02:29:57.284Z,69.00
2018-11-26T02:30:57.291Z,70.90
2018-11-26T02:31:57.305Z,67.00
2018-11-26T02:32:57.313Z,67.80
2018-11-26T02:33:57.344Z,65.80
2018-11-26T02:34:57.345Z,66.00
2018-11-26T02:35:57.351Z,65.60
2018-11-26T02:36:57.365Z,66.10
2018-11-26T02:37:57.376Z,65.00
2018-11-26T02:38:57.388Z,63.80
2018-11-26T02:39:57.404Z,63.90
2018-11-26T02:40:57.414Z,62.60
2018-11-26T02:41:57.427Z,64.70
2018-11-26T02:42:57.434Z,67.60
2018-11-26T02:43:57.450Z,64.00
2018-11-26T02:44:57.464Z,68.20
2018-11-26T02:45:57.475Z,67.30
2018-11-26T02:46:57.488Z,65.60
2018-11-26T02:47:57.532Z,67.60
2018-11-26T02:48:57.510Z,63.60
2018-11-26T02:49:57.526Z,68.80
2018-11-26T02:50:57.534Z,67.50
2018-11-26T02:51:57.550Z,63.80
2018-11-26T02:52:57.561Z,62.40
2018-11-26T02:53:57.571Z,62.20
2018-11-26T02:54:57.583Z,64.70
2018-11-26T02:55:57.594Z,65.20
2018-11-26T02:56:57.613Z,64.20
2018-11-26T02:57:57.635Z,68.40
2018-11-26T02:58:57.632Z,64.00
2018-11-26T02:59:57.649Z,64.70
2018-11-26T03:00:57.660Z,68.80
2018-11-26T03:01:57.674Z,65.20
2018-11-26T03:02:57.697Z,65.70
2018-11-26T03:03:57.696Z,64.70
2018-11-26T03:04:57.709Z,67.70
2018-11-26T03:05:57.721Z,66.00
2018-11-26T03:06:57.739Z,65.50
2018-11-26T03:07:57.749Z,61.60
2018-11-26T03:08:57.756Z,64.30
2018-11-26T03:38:17.743Z,52.90
2018-11-26T03:39:17.723Z,69.10
2018-11-26T03:41:09.622Z,82.70
2018-11-26T03:42:09.626Z,81.40
2018-11-26T03:44:01.535Z,84.70
2018-11-26T03:45:01.520Z,83.10
2018-11-26T03:46:53.414Z,80.00
2018-11-26T03:47:53.419Z,80.00
2018-11-26T03:49:45.346Z,84.50
2018-11-26T03:50:45.329Z,86.00
2018-11-26T03:52:37.243Z,82.70
2018-11-26T03:53:37.231Z,81.10
2018-11-26T03:55:29.133Z,81.00
2018-11-26T03:56:29.139Z,75.80
2018-11-26T03:58:21.060Z,75.10
2018-11-26T03:59:21.047Z,76.10
2018-11-26T04:01:12.948Z,71.60
2018-11-26T04:02:12.957Z,76.70
2018-11-26T04:04:04.883Z,73.30
2018-11-26T04:05:04.860Z,76.40
2018-11-26T04:06:56.763Z,73.40
2018-11-26T04:07:56.775Z,76.10
2018-11-26T04:09:48.705Z,75.50
2018-11-26T04:10:48.688Z,74.30
2018-11-26T04:12:40.625Z,77.30
2018-11-26T04:13:40.620Z,78.00
2018-11-26T04:15:32.514Z,74.20
2018-11-26T04:16:32.521Z,77.40
2018-11-26T04:18:24.449Z,74.90
2018-11-26T04:19:24.437Z,77.20
2018-11-26T04:21:16.347Z,79.30
2018-11-26T04:22:16.357Z,74.70
2018-11-26T04:24:08.295Z,75.50
2018-11-26T04:25:08.286Z,75.30
2018-11-26T04:27:00.195Z,86.50
2018-11-26T04:28:00.198Z,75.80
2018-11-26T04:29:52.139Z,79.90
2018-11-26T04:30:52.122Z,70.10
2018-11-26T04:32:44.043Z,77.40
2018-11-26T04:33:44.027Z,78.20
2018-11-26T04:35:35.946Z,74.10
2018-11-26T04:36:35.950Z,80.00
2018-11-26T04:38:27.870Z,72.80
2018-11-26T04:39:27.857Z,78.50
2018-11-26T04:41:19.797Z,71.90
2018-11-26T04:42:19.779Z,74.50
2018-11-26T04:44:11.726Z,74.40
2018-11-26T04:45:11.711Z,72.30
2018-11-26T04:47:03.620Z,72.90
2018-11-26T04:48:03.626Z,68.30
2018-11-26T04:49:55.554Z,72.00
2018-11-26T04:50:55.540Z,68.00
2018-11-26T04:52:47.474Z,72.40
2018-11-26T04:53:47.463Z,67.90
2018-11-26T04:55:39.362Z,65.90
2018-11-26T04:56:39.369Z,67.30
2018-11-26T04:58:31.306Z,69.50
2018-11-26T04:59:31.298Z,66.30
2018-11-26T05:01:23.203Z,67.70
2018-11-26T05:02:23.212Z,68.30
2018-11-26T05:04:15.148Z,67.10
2018-11-26T05:05:15.139Z,64.10
2018-11-26T05:07:07.053Z,63.70
2018-11-26T05:08:07.061Z,64.30
2018-11-26T05:09:58.990Z,63.00
2018-11-26T05:10:58.972Z,61.10
2018-11-26T05:12:50.911Z,64.90
2018-11-26T05:13:50.893Z,64.80
2018-11-26T05:15:42.817Z,61.10
2018-11-26T05:16:42.824Z,59.70
2018-11-26T05:18:34.752Z,60.40
2018-11-26T05:19:34.734Z,58.20
2018-11-26T05:21:26.641Z,59.20
2018-11-26T05:22:26.645Z,63.40
2018-11-26T05:24:18.577Z,60.10
2018-11-26T05:25:18.557Z,65.20
2018-11-26T05:27:10.469Z,60.20
2018-11-26T05:28:10.480Z,61.30
2018-11-26T05:30:02.399Z,60.90
2018-11-26T05:31:02.393Z,62.60
2018-11-26T05:32:54.315Z,58.80
2018-11-26T05:33:54.323Z,60.70
2018-11-26T05:35:46.262Z,63.00
2018-11-26T05:36:46.252Z,62.40
2018-11-26T05:38:38.185Z,62.60
2018-11-26T05:39:38.178Z,64.40
2018-11-26T05:41:30.093Z,58.90
2018-11-26T05:42:30.102Z,59.80
2018-11-26T05:44:22.038Z,62.10
2018-11-26T05:45:22.032Z,56.60
2018-11-26T05:47:13.948Z,59.80
2018-11-26T05:48:13.952Z,61.60
2018-11-26T05:50:05.898Z,58.20
2018-11-26T05:51:05.885Z,61.50
2018-11-26T05:52:57.790Z,57.80
2018-11-26T05:53:57.797Z,59.20
2018-11-26T05:55:49.725Z,59.70
2018-11-26T05:56:49.712Z,61.30
2018-11-26T05:58:41.655Z,54.10
2018-11-26T05:59:41.647Z,55.40
2018-11-26T06:01:33.553Z,59.60
2018-11-26T06:02:33.559Z,56.50
2018-11-26T06:04:25.489Z,53.40
2018-11-26T06:05:25.484Z,55.10
2018-11-26T06:07:17.401Z,57.10
2018-11-26T06:08:17.403Z,52.70
2018-11-26T06:10:09.359Z,55.20
2018-11-26T06:11:09.341Z,56.60
2018-11-26T06:13:01.248Z,56.80
2018-11-26T06:14:01.256Z,54.70
2018-11-26T06:15:53.195Z,55.50
2018-11-26T06:16:53.666Z,56.40
2018-11-26T06:18:45.111Z,58.50
2018-11-26T06:19:45.092Z,58.60
2018-11-26T06:21:36.998Z,58.20
2018-11-26T06:22:37.001Z,54.90
2018-11-26T06:24:28.934Z,56.20
2018-11-26T06:25:28.922Z,55.10
2018-11-26T06:27:20.842Z,57.90
2018-11-26T06:28:20.849Z,58.00
2018-11-26T06:30:12.780Z,56.40
2018-11-26T06:31:12.778Z,55.80
2018-11-26T06:33:04.680Z,60.90
2018-11-26T06:34:04.690Z,59.00
2018-11-26T06:35:56.614Z,60.20
2018-11-26T06:36:56.602Z,61.00
2018-11-26T06:38:48.535Z,56.20
2018-11-26T06:39:48.509Z,58.80
2018-11-26T06:41:40.472Z,57.70
2018-11-26T06:42:40.445Z,58.70
2018-11-26T06:44:32.365Z,60.70
2018-11-26T06:45:32.353Z,57.50
2018-11-26T06:47:24.257Z,56.00
2018-11-26T06:48:24.259Z,55.80
2018-11-26T06:50:16.183Z,59.00
2018-11-26T06:51:16.175Z,56.50
2018-11-26T06:53:08.080Z,54.50
2018-11-26T06:54:08.098Z,60.40
2018-11-26T06:56:00.006Z,62.70
2018-11-26T06:56:59.991Z,63.10
2018-11-26T06:58:53.422Z,60.80
2018-11-26T06:59:53.403Z,59.60
2018-11-26T07:01:45.308Z,59.70
2018-11-26T07:02:45.312Z,58.70
2018-11-26T07:04:37.235Z,64.60
2018-11-26T07:05:37.229Z,61.50
2018-11-26T07:07:29.122Z,57.30
2018-11-26T07:08:29.129Z,63.30
2018-11-26T07:10:21.054Z,58.20
2018-11-26T07:11:21.041Z,66.10
2018-11-26T07:13:13.443Z,61.70
2018-11-26T07:14:13.449Z,60.60
2018-11-26T07:16:05.388Z,62.00
2018-11-26T07:17:05.360Z,60.60
2018-11-26T07:18:57.297Z,62.70
2018-11-26T07:19:57.281Z,60.70
2018-11-26T07:21:49.184Z,59.40
2018-11-26T07:22:49.228Z,62.60
2018-11-26T07:24:41.168Z,62.80
2018-11-26T07:25:41.118Z,63.50
2018-11-26T07:27:33.037Z,62.90
2018-11-26T07:28:33.017Z,61.00
2018-11-26T07:30:24.944Z,55.40
2018-11-26T07:31:24.929Z,59.70
2018-11-26T07:33:16.833Z,56.80
2018-11-26T07:34:16.844Z,54.50
2018-11-26T07:36:11.407Z,59.80
2018-11-26T07:37:08.806Z,57.20
2018-11-26T07:39:00.787Z,53.70
2018-11-26T07:40:00.667Z,54.20
2018-11-26T07:41:52.574Z,57.40
2018-11-26T07:42:52.584Z,53.10
2018-11-26T07:44:44.515Z,52.60
2018-11-26T07:45:44.496Z,52.10
2018-11-26T07:47:36.404Z,55.10
2018-11-26T07:48:36.408Z,52.10
2018-11-26T07:50:28.329Z,54.80
2018-11-26T07:51:28.319Z,51.10
2018-11-26T07:53:20.260Z,53.30
2018-11-26T07:54:20.238Z,52.20
2018-11-26T07:56:13.002Z,50.00
2018-11-26T07:57:12.173Z,54.30
2018-11-26T07:59:04.337Z,51.00
2018-11-26T08:00:04.255Z,52.70
2018-11-26T08:01:56.186Z,52.30
2018-11-26T08:02:56.192Z,50.30
2018-11-26T08:04:48.094Z,50.90
2018-11-26T08:05:48.088Z,54.40
2018-11-26T08:07:40.010Z,53.30
2018-11-26T08:08:39.992Z,53.10
2018-11-26T08:10:31.925Z,53.50
2018-11-26T08:11:31.906Z,54.20
2018-11-26T08:13:23.812Z,57.60
2018-11-26T08:14:23.815Z,57.30
2018-11-26T08:16:15.784Z,58.60
2018-11-26T08:17:15.727Z,64.10
2018-11-26T08:19:07.652Z,56.70
2018-11-26T08:20:07.641Z,56.70
2018-11-26T08:21:59.565Z,55.00
2018-11-26T08:22:59.555Z,60.30
2018-11-26T08:24:51.480Z,60.80
2018-11-26T08:25:51.465Z,59.00
2018-11-26T08:27:43.382Z,59.10
2018-11-26T08:28:43.409Z,54.50
2018-11-26T08:30:35.314Z,55.80
2018-11-26T08:31:35.308Z,54.90
2018-11-26T08:33:27.232Z,56.00
2018-11-26T08:34:27.223Z,52.60
2018-11-26T08:36:19.156Z,52.90
2018-11-26T08:37:19.133Z,53.10
2018-11-26T08:39:11.060Z,50.80
2018-11-26T08:40:11.042Z,51.40
2018-11-26T08:42:02.971Z,49.30
2018-11-26T08:43:02.969Z,53.50
2018-11-26T08:44:54.929Z,47.90
2018-11-26T08:45:54.867Z,53.00
2018-11-26T08:47:46.773Z,48.30
2018-11-26T08:48:46.781Z,50.70
2018-11-26T08:50:38.788Z,52.60
2018-11-26T08:51:38.774Z,49.70
2018-11-26T08:53:30.697Z,52.80
2018-11-26T08:54:30.707Z,53.80
2018-11-26T08:56:22.810Z,52.20
2018-11-26T08:57:22.753Z,53.70
2018-11-26T08:59:14.661Z,50.30
2018-11-26T09:00:14.664Z,54.70
2018-11-26T09:02:06.593Z,52.20
2018-11-26T09:03:06.586Z,51.70
2018-11-26T09:04:06.594Z,54.60
2018-11-26T09:05:06.608Z,52.00
2018-11-26T09:06:06.626Z,57.10
2018-11-26T09:07:06.631Z,56.40
2018-11-26T09:08:06.648Z,55.50
2018-11-26T09:09:06.670Z,55.70
2018-11-26T09:10:06.672Z,54.60
2018-11-26T09:11:06.685Z,60.70
2018-11-26T09:12:06.703Z,53.60
2018-11-26T09:13:06.715Z,55.20
2018-11-26T09:14:06.730Z,55.20
2018-11-26T09:15:06.750Z,54.60
2018-11-26T09:16:06.758Z,52.50
2018-11-26T09:17:06.805Z,55.80
2018-11-26T09:18:06.819Z,51.60
2018-11-26T09:19:06.822Z,50.50
2018-11-26T09:20:06.807Z,49.90
2018-11-26T09:21:06.818Z,53.00
2018-11-26T09:22:06.828Z,50.30
2018-11-26T09:23:06.833Z,47.90
2018-11-26T09:24:06.854Z,50.40
2018-11-26T09:25:06.865Z,49.30
2018-11-26T09:26:06.878Z,49.80
2018-11-26T09:27:09.891Z,51.90
2018-11-26T09:28:06.907Z,49.10
2018-11-26T09:29:06.911Z,50.10
2018-11-26T09:30:06.930Z,51.10
2018-11-26T09:31:06.936Z,53.00
2018-11-26T09:32:06.946Z,51.60
2018-11-26T09:33:07.001Z,54.10
2018-11-26T09:34:06.978Z,52.40
2018-11-26T09:35:06.986Z,48.40
2018-11-26T09:36:07.088Z,52.20
2018-11-26T09:37:07.017Z,50.10
2018-11-26T09:38:07.030Z,52.00
2018-11-26T09:39:07.076Z,53.50
2018-11-26T09:40:07.047Z,51.00
2018-11-26T09:41:07.062Z,58.10
2018-11-26T09:42:07.074Z,53.60
2018-11-26T09:43:07.087Z,52.50
2018-11-26T09:44:07.112Z,52.60
2018-11-26T09:45:07.194Z,55.70
2018-11-26T09:46:07.134Z,53.90
2018-11-26T09:47:07.142Z,54.00
2018-11-26T09:48:07.146Z,54.80
2018-11-26T09:49:07.159Z,56.40
2018-11-26T09:50:07.180Z,55.30
2018-11-26T09:51:13.912Z,54.90
2018-11-26T09:52:07.207Z,57.00
2018-11-26T09:53:07.215Z,55.20
2018-11-26T09:54:07.226Z,60.20
2018-11-26T09:55:07.244Z,59.40
2018-11-26T09:56:07.259Z,59.80
2018-11-26T09:57:07.266Z,63.30
2018-11-26T09:58:07.280Z,59.00
2018-11-26T09:59:07.291Z,57.60
2018-11-26T10:00:07.311Z,58.80
2018-11-26T10:01:07.312Z,58.10
2018-11-26T10:02:07.636Z,58.50
2018-11-26T10:03:07.344Z,56.00
2018-11-26T10:04:07.356Z,59.20
2018-11-26T10:05:07.380Z,60.60
2018-11-26T10:06:07.376Z,56.40
2018-11-26T10:07:07.392Z,62.00
2018-11-26T10:08:07.402Z,61.70
2018-11-26T10:09:07.421Z,61.00
2018-11-26T10:10:07.432Z,63.70
2018-11-26T10:11:07.491Z,60.30
2018-11-26T10:12:07.460Z,64.10
2018-11-26T10:13:07.469Z,62.40
2018-11-26T10:14:07.485Z,64.10
2018-11-26T10:15:07.501Z,64.60
2018-11-26T10:16:07.512Z,60.20
2018-11-26T10:17:07.515Z,62.50
2018-11-26T10:18:07.528Z,63.40
2018-11-26T10:19:07.539Z,62.90
2018-11-26T10:20:07.555Z,66.50
2018-11-26T10:21:07.577Z,61.90
2018-11-26T10:22:07.581Z,59.90
2018-11-26T10:23:07.592Z,64.00
2018-11-26T10:24:07.608Z,64.90
2018-11-26T10:25:07.620Z,60.90
2018-11-26T10:26:07.636Z,59.90
2018-11-26T10:27:07.641Z,62.20
2018-11-26T10:28:07.655Z,57.10
2018-11-26T10:29:07.677Z,60.70
2018-11-26T10:30:07.684Z,64.90
2018-11-26T10:31:07.700Z,64.20
2018-11-26T10:32:07.715Z,63.60
2018-11-26T10:33:14.444Z,63.70
2018-11-26T10:34:07.738Z,60.60
2018-11-26T10:35:07.743Z,62.30
2018-11-26T10:36:07.761Z,59.70
2018-11-26T10:37:07.781Z,67.00
2018-11-26T10:38:07.787Z,64.70
2018-11-26T10:39:07.800Z,63.80
2018-11-26T10:40:07.816Z,65.40
2018-11-26T10:41:07.831Z,62.70
2018-11-26T10:42:07.835Z,60.80
2018-11-26T10:43:11.579Z,60.50
2018-11-26T10:44:07.870Z,63.00
2018-11-26T10:45:07.890Z,62.60
2018-11-26T10:46:07.892Z,61.80
2018-11-26T10:47:07.908Z,62.50
2018-11-26T10:48:07.912Z,61.90
2018-11-26T10:49:07.951Z,64.30
2018-11-26T10:50:07.939Z,65.30
2018-11-26T10:51:07.946Z,61.10
2018-11-26T10:52:07.970Z,64.40
2018-11-26T10:53:08.145Z,62.90
2018-11-26T10:54:07.990Z,60.00
2018-11-26T10:55:07.996Z,61.30
2018-11-26T10:56:08.010Z,63.80
2018-11-26T10:57:08.439Z,63.00
2018-11-26T10:58:08.041Z,61.20
2018-11-26T10:59:08.056Z,59.30
2018-11-26T11:00:08.062Z,62.30
2018-11-26T11:01:08.076Z,64.40
2018-11-26T11:02:08.095Z,62.80
2018-11-26T11:03:08.108Z,61.00
2018-11-26T11:04:08.119Z,62.50
2018-11-26T11:05:08.134Z,58.80
2018-11-26T11:06:08.152Z,63.20
2018-11-26T11:07:08.152Z,60.00
2018-11-26T11:08:08.194Z,61.80
2018-11-26T11:09:08.184Z,58.50
2018-11-26T11:10:08.203Z,59.50
2018-11-26T11:11:08.214Z,56.20
2018-11-26T11:12:08.231Z,60.80
2018-11-26T11:13:08.238Z,61.90
2018-11-26T11:14:08.244Z,60.10
2018-11-26T11:15:08.264Z,60.60
2018-11-26T11:16:08.278Z,58.90
2018-11-26T11:17:08.283Z,61.00
2018-11-26T11:18:08.357Z,57.10
2018-11-26T11:19:08.320Z,58.80
2018-11-26T11:20:08.325Z,54.80
2018-11-26T11:21:08.344Z,61.70
2018-11-26T11:22:08.349Z,57.80
2018-11-26T11:23:08.390Z,55.10
2018-11-26T11:24:08.435Z,57.40
2018-11-26T11:25:08.397Z,58.30
2018-11-26T11:26:08.396Z,53.30
2018-11-26T11:27:08.414Z,54.50
2018-11-26T11:28:08.471Z,58.50
2018-11-26T11:29:08.488Z,56.60
2018-11-26T11:30:08.477Z,54.00
2018-11-26T11:31:08.471Z,53.80
2018-11-26T11:32:08.487Z,55.40
2018-11-26T11:33:29.504Z,58.30
2018-11-26T11:34:08.501Z,53.10
2018-11-26T11:35:08.515Z,59.50
2018-11-26T11:36:08.532Z,56.70
2018-11-26T11:37:08.545Z,52.90
2018-11-26T11:38:08.565Z,57.40
2018-11-26T11:39:08.575Z,54.80
2018-11-26T11:40:08.582Z,54.90
2018-11-26T11:41:08.598Z,56.10
2018-11-26T11:42:08.613Z,55.10
2018-11-26T11:43:08.627Z,52.40
2018-11-26T11:44:08.635Z,50.70
2018-11-26T11:45:08.647Z,50.10
2018-11-26T11:46:08.673Z,49.80
2018-11-26T11:47:08.699Z,51.20
2018-11-26T11:48:08.691Z,51.30
2018-11-26T11:49:08.707Z,51.10
2018-11-26T11:50:08.718Z,52.80
2018-11-26T11:51:08.742Z,49.30
2018-11-26T11:52:08.752Z,48.20
2018-11-26T11:53:08.755Z,48.80
2018-11-26T11:54:08.769Z,49.80
2018-11-26T11:55:08.776Z,50.10
2018-11-26T11:56:08.787Z,50.20
2018-11-26T11:57:08.819Z,50.40
2018-11-26T11:58:08.824Z,48.70
2018-11-26T11:59:08.829Z,47.20
2018-11-26T12:00:08.847Z,47.20
2018-11-26T12:01:10.694Z,49.50
2018-11-26T12:02:08.867Z,48.60
2018-11-26T12:03:08.882Z,46.70
2018-11-26T12:04:08.933Z,46.60
2018-11-26T12:05:08.913Z,47.10
2018-11-26T12:06:08.927Z,45.60
2018-11-26T12:07:08.945Z,46.30
2018-11-26T12:08:08.952Z,43.70
2018-11-26T12:09:08.967Z,43.80
2018-11-26T12:10:08.981Z,43.70
2018-11-26T12:11:08.993Z,44.00
2018-11-26T12:12:09.007Z,43.80
2018-11-26T12:13:09.018Z,42.10
2018-11-26T12:14:09.032Z,42.40
2018-11-26T12:15:09.057Z,43.60
2018-11-26T12:16:09.061Z,38.70
2018-11-26T12:17:09.070Z,42.80
2018-11-26T12:18:09.084Z,37.70
2018-11-26T12:19:09.103Z,40.50
2018-11-26T12:20:09.111Z,41.30
2018-11-26T12:21:09.121Z,39.60
2018-11-26T12:22:09.145Z,43.40
2018-11-26T12:23:09.144Z,48.00
2018-11-26T12:24:09.161Z,43.40
2018-11-26T12:25:09.182Z,41.30
2018-11-26T12:26:09.182Z,40.70
2018-11-26T12:27:09.194Z,38.60
2018-11-26T12:28:09.211Z,41.40
2018-11-26T12:29:09.230Z,40.90
2018-11-26T12:30:09.247Z,40.10
2018-11-26T12:31:09.261Z,39.20
2018-11-26T12:32:09.270Z,42.90
2018-11-26T12:33:09.285Z,40.70
2018-11-26T12:34:09.296Z,41.60
2018-11-26T12:35:09.305Z,43.00
2018-11-26T12:36:09.317Z,39.40
2018-11-26T12:37:09.331Z,39.30
2018-11-26T12:38:09.349Z,40.30
2018-11-26T12:39:09.364Z,42.50
2018-11-26T12:40:09.379Z,40.00
2018-11-26T12:41:09.392Z,39.50
2018-11-26T12:42:09.407Z,41.90
2018-11-26T12:43:09.414Z,40.00
2018-11-26T12:44:09.426Z,41.80
2018-11-26T12:45:09.444Z,40.10
2018-11-26T12:46:09.460Z,38.70
2018-11-26T12:47:09.474Z,39.10
2018-11-26T12:48:09.490Z,37.70
2018-11-26T12:49:09.498Z,40.40
2018-11-26T12:50:09.516Z,39.90
2018-11-26T12:51:09.534Z,37.40
2018-11-26T12:52:09.543Z,40.80
2018-11-26T12:53:09.556Z,41.00
2018-11-26T12:54:09.563Z,43.30
2018-11-26T12:55:09.572Z,40.30
2018-11-26T12:56:09.592Z,40.70
2018-11-26T12:57:09.601Z,40.00
2018-11-26T12:58:09.623Z,37.50
2018-11-26T12:59:09.636Z,38.60
2018-11-26T13:00:09.641Z,39.30
2018-11-26T13:01:09.656Z,39.20
2018-11-26T13:02:09.669Z,42.50
2018-11-26T13:03:09.682Z,40.00
2018-11-26T13:04:09.697Z,38.40
2018-11-26T13:05:09.714Z,42.00
2018-11-26T13:06:09.731Z,39.80
2018-11-26T13:07:09.734Z,38.20
2018-11-26T13:08:09.744Z,39.20
2018-11-26T13:09:09.867Z,41.50
2018-11-26T13:10:09.859Z,39.50
2018-11-26T13:11:09.788Z,40.20
2018-11-26T13:12:09.802Z,39.40
2018-11-26T13:13:09.816Z,40.60
2018-11-26T13:14:09.825Z,40.30
2018-11-26T13:15:09.842Z,42.60
2018-11-26T13:16:09.858Z,40.80
2018-11-26T13:17:09.902Z,40.40
2018-11-26T13:18:09.923Z,40.50
2018-11-26T13:19:09.898Z,42.60
2018-11-26T13:20:09.971Z,40.60
2018-11-26T13:21:09.924Z,39.30
2018-11-26T13:22:09.940Z,39.00
2018-11-26T13:23:10.000Z,42.20
2018-11-26T13:24:10.017Z,42.50
2018-11-26T13:25:10.125Z,42.00
2018-11-26T13:26:10.108Z,45.10
2018-11-26T13:27:10.264Z,43.30
2018-11-26T13:28:10.013Z,42.80
2018-11-26T13:29:10.039Z,44.30
2018-11-26T13:30:10.103Z,42.40
2018-11-26T13:31:10.056Z,39.80
2018-11-26T13:32:10.085Z,40.30
2018-11-26T13:33:10.196Z,42.60
2018-11-26T13:34:10.941Z,40.00
2018-11-26T13:35:10.348Z,40.60
2018-11-26T13:36:10.191Z,40.90
2018-11-26T13:37:10.175Z,41.20
2018-11-26T13:38:10.195Z,43.60
2018-11-26T13:39:10.222Z,44.40
2018-11-26T13:40:10.187Z,43.10
2018-11-26T13:41:10.303Z,48.00
2018-11-26T13:42:10.264Z,43.90
2018-11-26T13:43:10.402Z,49.60
2018-11-26T13:44:10.291Z,48.30
2018-11-26T13:45:10.337Z,48.90
2018-11-26T13:46:10.345Z,48.20
2018-11-26T13:47:10.266Z,49.70
2018-11-26T13:48:10.279Z,52.20
2018-11-26T13:49:10.305Z,50.10
2018-11-26T13:50:10.312Z,50.10
2018-11-26T13:51:10.316Z,50.60
2018-11-26T13:52:10.329Z,52.20
2018-11-26T13:53:10.345Z,50.30
2018-11-26T13:54:10.359Z,50.20
2018-11-26T13:55:10.395Z,55.30
2018-11-26T13:56:10.385Z,51.50
2018-11-26T13:57:10.400Z,53.60
2018-11-26T13:58:10.412Z,52.50
2018-11-26T13:59:10.421Z,50.60
2018-11-26T14:00:10.435Z,51.00
2018-11-26T14:01:10.443Z,52.10
2018-11-26T14:02:10.463Z,52.70
2018-11-26T14:03:10.473Z,52.40
2018-11-26T14:04:10.489Z,50.70
2018-11-26T14:05:10.503Z,54.20
2018-11-26T14:06:10.517Z,51.20
2018-11-26T14:07:10.532Z,53.30
2018-11-26T14:08:10.568Z,51.40
2018-11-26T14:09:10.559Z,54.50
2018-11-26T14:10:10.568Z,55.20
2018-11-26T14:11:10.574Z,53.10
2018-11-26T14:12:10.592Z,52.70
2018-11-26T14:13:10.610Z,51.30
2018-11-26T14:14:10.619Z,51.60
2018-11-26T14:15:10.641Z,53.50
2018-11-26T14:16:10.646Z,54.20
2018-11-26T14:17:10.656Z,52.00
2018-11-26T14:18:10.665Z,50.80
2018-11-26T14:19:10.690Z,54.90
2018-11-26T14:20:10.701Z,51.50
2018-11-26T14:21:10.713Z,51.50
2018-11-26T14:22:10.721Z,52.00
2018-11-26T14:23:10.750Z,49.10
2018-11-26T14:24:10.767Z,54.50
2018-11-26T14:25:10.761Z,55.10
2018-11-26T14:26:10.782Z,50.20
2018-11-26T14:27:10.788Z,52.50
2018-11-26T14:28:10.801Z,51.30
2018-11-26T14:29:10.816Z,49.40
2018-11-26T14:30:10.832Z,53.50
2018-11-26T14:31:10.838Z,53.00
2018-11-26T14:32:10.853Z,51.80
2018-11-26T14:33:10.868Z,51.20
2018-11-26T14:34:10.916Z,49.80
2018-11-26T14:35:12.122Z,54.10
2018-11-26T14:36:10.911Z,54.80
2018-11-26T14:37:10.927Z,54.40
2018-11-26T14:38:10.930Z,54.60
2018-11-26T14:39:10.949Z,53.40
2018-11-26T14:40:10.979Z,56.70
2018-11-26T14:41:10.974Z,54.70
2018-11-26T14:42:10.988Z,57.80
2018-11-26T14:43:11.032Z,53.40
2018-11-26T14:44:11.013Z,54.90
2018-11-26T14:45:11.034Z,60.50
2018-11-26T14:46:11.041Z,54.40
2018-11-26T14:47:11.049Z,56.70
2018-11-26T14:48:11.065Z,56.30
2018-11-26T14:49:11.080Z,58.90
2018-11-26T14:50:11.090Z,57.10
2018-11-26T14:51:11.108Z,57.40
2018-11-26T14:52:11.116Z,52.30
2018-11-26T14:53:11.129Z,55.30
2018-11-26T14:54:11.142Z,62.80
2018-11-26T14:55:11.154Z,57.50
2018-11-26T14:56:11.170Z,56.70
2018-11-26T14:57:11.189Z,59.20
2018-11-26T14:58:11.194Z,55.30